sensor_id;sensor_type;location;lat;lon;timestamp;pressure;altitude;pressure_sealevel;temperature;humidity
82562;BME280;72228;51.208;10.468;2023-09-19T00:01:07;98316.25;;;16.74;81.89
82562;BME280;72228;51.208;10.468;2023-09-19T00:03:34;98327.91;;;16.76;81.47
82562;BME280;72228;51.208;10.468;2023-09-19T00:06:00;98325.22;;;16.83;81.27
82562;BME280;72228;51.208;10.468;2023-09-19T00:08:26;98324.44;;;16.86;81.03
82562;BME280;72228;51.208;10.468;2023-09-19T00:10:54;98327.59;;;16.81;81.28
82562;BME280;72228;51.208;10.468;2023-09-19T00:13:20;98323.78;;;16.70;81.40
82562;BME280;72228;51.208;10.468;2023-09-19T00:15:47;98334.34;;;16.80;80.92
82562;BME280;72228;51.208;10.468;2023-09-19T00:18:16;98338.28;;;16.75;81.24
82562;BME280;72228;51.208;10.468;2023-09-19T00:20:43;98336.41;;;16.83;80.73
82562;BME280;72228;51.208;10.468;2023-09-19T00:23:13;98336.53;;;16.90;79.98
82562;BME280;72228;51.208;10.468;2023-09-19T00:25:39;98329.00;;;16.94;80.25
82562;BME280;72228;51.208;10.468;2023-09-19T00:28:06;98336.22;;;16.95;79.34
82562;BME280;72228;51.208;10.468;2023-09-19T00:30:33;98329.34;;;16.93;79.38
82562;BME280;72228;51.208;10.468;2023-09-19T00:32:59;98338.53;;;16.89;79.32
82562;BME280;72228;51.208;10.468;2023-09-19T00:35:25;98336.84;;;16.85;79.06
82562;BME280;72228;51.208;10.468;2023-09-19T00:37:53;98329.34;;;16.93;78.59
82562;BME280;72228;51.208;10.468;2023-09-19T00:40:20;98347.19;;;16.81;79.25
82562;BME280;72228;51.208;10.468;2023-09-19T00:42:47;98348.72;;;16.78;79.16
82562;BME280;72228;51.208;10.468;2023-09-19T00:45:15;98349.66;;;16.86;78.50
82562;BME280;72228;51.208;10.468;2023-09-19T00:50:12;98343.84;;;16.98;76.61
82562;BME280;72228;51.208;10.468;2023-09-19T00:52:40;98344.28;;;17.23;74.23
82562;BME280;72228;51.208;10.468;2023-09-19T00:55:08;98359.38;;;17.45;72.77
82562;BME280;72228;51.208;10.468;2023-09-19T00:57:36;98357.00;;;17.47;73.03
82562;BME280;72228;51.208;10.468;2023-09-19T01:00:04;98360.16;;;17.42;72.71
82562;BME280;72228;51.208;10.468;2023-09-19T01:02:31;98362.81;;;17.35;73.50
82562;BME280;72228;51.208;10.468;2023-09-19T01:04:58;98358.81;;;17.32;74.28
82562;BME280;72228;51.208;10.468;2023-09-19T01:07:24;98361.53;;;17.29;75.42
82562;BME280;72228;51.208;10.468;2023-09-19T01:09:49;98362.94;;;17.15;76.02
82562;BME280;72228;51.208;10.468;2023-09-19T01:12:22;98362.34;;;17.03;76.69
82562;BME280;72228;51.208;10.468;2023-09-19T01:15:06;98362.59;;;16.94;77.07
82562;BME280;72228;51.208;10.468;2023-09-19T01:17:50;98369.00;;;16.95;76.56
82562;BME280;72228;51.208;10.468;2023-09-19T01:20:57;98368.53;;;17.15;74.88
82562;BME280;72228;51.208;10.468;2023-09-19T01:23:18;98374.41;;;17.07;74.63
82562;BME280;72228;51.208;10.468;2023-09-19T01:31:40;98375.03;;;16.97;74.56
82562;BME280;72228;51.208;10.468;2023-09-19T01:34:08;98380.13;;;16.91;74.86
82562;BME280;72228;51.208;10.468;2023-09-19T01:36:37;98376.91;;;16.89;74.48
82562;BME280;72228;51.208;10.468;2023-09-19T01:39:09;98379.75;;;16.93;74.59
82562;BME280;72228;51.208;10.468;2023-09-19T01:44:12;98386.34;;;17.04;74.05
82562;BME280;72228;51.208;10.468;2023-09-19T01:46:44;98384.75;;;17.03;73.79
82562;BME280;72228;51.208;10.468;2023-09-19T01:49:31;98384.75;;;17.03;73.54
82562;BME280;72228;51.208;10.468;2023-09-19T01:52:20;98385.84;;;16.98;73.66
82562;BME280;72228;51.208;10.468;2023-09-19T01:54:50;98391.34;;;16.91;73.95
82562;BME280;72228;51.208;10.468;2023-09-19T01:57:28;98394.00;;;16.84;74.32
82562;BME280;72228;51.208;10.468;2023-09-19T02:00:15;98402.06;;;16.66;74.90
82562;BME280;72228;51.208;10.468;2023-09-19T02:02:47;98401.25;;;16.66;74.93
82562;BME280;72228;51.208;10.468;2023-09-19T02:05:13;98402.75;;;16.59;75.03
82562;BME280;72228;51.208;10.468;2023-09-19T02:07:39;98406.50;;;16.48;74.99
82562;BME280;72228;51.208;10.468;2023-09-19T02:10:06;98408.44;;;16.44;75.75
82562;BME280;72228;51.208;10.468;2023-09-19T02:12:32;98412.06;;;16.44;75.49
82562;BME280;72228;51.208;10.468;2023-09-19T02:14:58;98418.25;;;16.34;75.61
82562;BME280;72228;51.208;10.468;2023-09-19T02:17:25;98415.38;;;16.30;75.75
82562;BME280;72228;51.208;10.468;2023-09-19T02:19:55;98417.28;;;16.26;75.71
82562;BME280;72228;51.208;10.468;2023-09-19T02:22:21;98412.94;;;16.09;76.17
82562;BME280;72228;51.208;10.468;2023-09-19T02:24:50;98415.59;;;16.02;76.60
82562;BME280;72228;51.208;10.468;2023-09-19T02:27:16;98426.13;;;15.90;76.87
82562;BME280;72228;51.208;10.468;2023-09-19T02:29:42;98431.72;;;15.90;76.76
82562;BME280;72228;51.208;10.468;2023-09-19T02:32:08;98422.94;;;15.91;76.10
82562;BME280;72228;51.208;10.468;2023-09-19T02:34:35;98433.59;;;15.86;75.85
82562;BME280;72228;51.208;10.468;2023-09-19T02:37:03;98432.72;;;15.81;76.12
82562;BME280;72228;51.208;10.468;2023-09-19T02:39:31;98435.50;;;15.81;75.46
82562;BME280;72228;51.208;10.468;2023-09-19T02:41:56;98437.44;;;15.62;76.48
82562;BME280;72228;51.208;10.468;2023-09-19T02:44:22;98437.25;;;15.54;77.26
82562;BME280;72228;51.208;10.468;2023-09-19T02:46:49;98451.69;;;15.41;77.90
82562;BME280;72228;51.208;10.468;2023-09-19T02:49:15;98454.50;;;15.25;78.18
82562;BME280;72228;51.208;10.468;2023-09-19T02:51:40;98455.03;;;15.15;79.11
82562;BME280;72228;51.208;10.468;2023-09-19T02:54:06;98454.59;;;15.13;79.30
82562;BME280;72228;51.208;10.468;2023-09-19T02:56:31;98458.19;;;14.97;79.86
82562;BME280;72228;51.208;10.468;2023-09-19T02:58:58;98468.25;;;14.86;80.02
82562;BME280;72228;51.208;10.468;2023-09-19T03:01:25;98460.41;;;14.92;79.96
82562;BME280;72228;51.208;10.468;2023-09-19T03:03:52;98470.59;;;14.84;80.07
82562;BME280;72228;51.208;10.468;2023-09-19T03:06:18;98477.16;;;14.76;80.56
82562;BME280;72228;51.208;10.468;2023-09-19T03:08:45;98472.38;;;14.77;80.37
82562;BME280;72228;51.208;10.468;2023-09-19T03:11:12;98482.06;;;14.67;80.80
82562;BME280;72228;51.208;10.468;2023-09-19T03:13:40;98480.75;;;14.77;79.69
82562;BME280;72228;51.208;10.468;2023-09-19T03:16:07;98481.75;;;14.84;78.68
82562;BME280;72228;51.208;10.468;2023-09-19T03:18:36;98482.94;;;14.83;78.43
82562;BME280;72228;51.208;10.468;2023-09-19T03:21:02;98489.13;;;14.92;77.04
82562;BME280;72228;51.208;10.468;2023-09-19T03:23:28;98489.88;;;14.89;76.98
82562;BME280;72228;51.208;10.468;2023-09-19T03:25:57;98491.75;;;14.85;76.40
82562;BME280;72228;51.208;10.468;2023-09-19T03:28:24;98497.38;;;15.01;74.77
82562;BME280;72228;51.208;10.468;2023-09-19T03:31:03;98491.34;;;15.15;74.30
82562;BME280;72228;51.208;10.468;2023-09-19T03:33:29;98493.88;;;15.20;73.32
82562;BME280;72228;51.208;10.468;2023-09-19T03:35:57;98495.41;;;15.17;72.63
82562;BME280;72228;51.208;10.468;2023-09-19T03:38:23;98488.91;;;15.13;72.44
82562;BME280;72228;51.208;10.468;2023-09-19T03:40:49;98484.22;;;15.01;72.87
82562;BME280;72228;51.208;10.468;2023-09-19T03:43:14;98479.69;;;14.97;73.03
82562;BME280;72228;51.208;10.468;2023-09-19T03:45:40;98482.22;;;15.02;72.37
82562;BME280;72228;51.208;10.468;2023-09-19T03:48:09;98479.81;;;15.00;72.62
82562;BME280;72228;51.208;10.468;2023-09-19T03:50:35;98485.38;;;15.00;72.01
82562;BME280;72228;51.208;10.468;2023-09-19T03:53:00;98486.09;;;14.97;72.17
82562;BME280;72228;51.208;10.468;2023-09-19T03:55:26;98489.13;;;14.92;72.79
82562;BME280;72228;51.208;10.468;2023-09-19T03:57:52;98488.06;;;14.81;73.14
82562;BME280;72228;51.208;10.468;2023-09-19T04:00:18;98487.78;;;14.86;72.74
82562;BME280;72228;51.208;10.468;2023-09-19T04:02:46;98487.69;;;14.83;73.22
82562;BME280;72228;51.208;10.468;2023-09-19T04:05:12;98491.13;;;14.76;73.65
82562;BME280;72228;51.208;10.468;2023-09-19T04:07:37;98485.97;;;14.62;74.22
82562;BME280;72228;51.208;10.468;2023-09-19T04:10:03;98502.03;;;14.53;74.68
82562;BME280;72228;51.208;10.468;2023-09-19T04:12:29;98511.00;;;14.46;75.34
82562;BME280;72228;51.208;10.468;2023-09-19T04:14:54;98507.50;;;14.37;75.47
82562;BME280;72228;51.208;10.468;2023-09-19T04:17:19;98515.22;;;14.28;75.65
82562;BME280;72228;51.208;10.468;2023-09-19T04:19:45;98513.91;;;14.38;75.60
82562;BME280;72228;51.208;10.468;2023-09-19T04:22:11;98515.41;;;14.35;75.42
82562;BME280;72228;51.208;10.468;2023-09-19T04:24:38;98524.03;;;14.30;75.89
82562;BME280;72228;51.208;10.468;2023-09-19T04:27:04;98518.25;;;14.23;76.27
82562;BME280;72228;51.208;10.468;2023-09-19T04:29:30;98521.28;;;14.18;76.36
82562;BME280;72228;51.208;10.468;2023-09-19T04:31:56;98516.63;;;14.22;75.30
82562;BME280;72228;51.208;10.468;2023-09-19T04:34:24;98519.88;;;14.24;75.60
82562;BME280;72228;51.208;10.468;2023-09-19T04:36:49;98521.13;;;14.39;73.34
82562;BME280;72228;51.208;10.468;2023-09-19T04:39:15;98532.59;;;14.49;72.62
82562;BME280;72228;51.208;10.468;2023-09-19T04:41:42;98531.78;;;14.49;72.23
82562;BME280;72228;51.208;10.468;2023-09-19T04:44:07;98536.97;;;14.63;70.90
82562;BME280;72228;51.208;10.468;2023-09-19T04:46:33;98538.25;;;14.65;70.86
82562;BME280;72228;51.208;10.468;2023-09-19T04:48:59;98546.03;;;14.60;71.25
82562;BME280;72228;51.208;10.468;2023-09-19T04:51:24;98556.75;;;14.58;70.76
82562;BME280;72228;51.208;10.468;2023-09-19T04:53:52;98556.84;;;14.61;70.68
82562;BME280;72228;51.208;10.468;2023-09-19T04:56:17;98561.56;;;14.73;69.51
82562;BME280;72228;51.208;10.468;2023-09-19T04:58:42;98553.19;;;14.73;69.63
82562;BME280;72228;51.208;10.468;2023-09-19T05:01:08;98566.69;;;14.71;70.46
82562;BME280;72228;51.208;10.468;2023-09-19T05:03:37;98559.59;;;14.73;69.15
82562;BME280;72228;51.208;10.468;2023-09-19T05:06:02;98556.34;;;14.71;69.67
82562;BME280;72228;51.208;10.468;2023-09-19T05:08:30;98566.75;;;14.59;70.32
82562;BME280;72228;51.208;10.468;2023-09-19T05:10:56;98562.53;;;14.65;69.50
82562;BME280;72228;51.208;10.468;2023-09-19T05:13:21;98567.66;;;14.63;69.47
82562;BME280;72228;51.208;10.468;2023-09-19T05:15:48;98565.72;;;14.79;68.55
82562;BME280;72228;51.208;10.468;2023-09-19T05:18:15;98560.75;;;14.72;69.14
82562;BME280;72228;51.208;10.468;2023-09-19T05:20:41;98565.28;;;14.77;68.86
82562;BME280;72228;51.208;10.468;2023-09-19T05:23:07;98558.44;;;14.74;68.94
82562;BME280;72228;51.208;10.468;2023-09-19T05:25:35;98556.59;;;14.66;69.56
82562;BME280;72228;51.208;10.468;2023-09-19T05:28:05;98565.97;;;14.74;68.96
82562;BME280;72228;51.208;10.468;2023-09-19T05:30:31;98567.97;;;14.73;69.59
82562;BME280;72228;51.208;10.468;2023-09-19T05:32:57;98567.63;;;14.75;69.46
82562;BME280;72228;51.208;10.468;2023-09-19T05:35:23;98573.78;;;14.81;69.47
82562;BME280;72228;51.208;10.468;2023-09-19T05:37:53;98578.88;;;15.07;68.98
82562;BME280;72228;51.208;10.468;2023-09-19T05:40:19;98573.16;;;15.47;68.39
82562;BME280;72228;51.208;10.468;2023-09-19T05:42:45;98567.41;;;15.87;66.22
82562;BME280;72228;51.208;10.468;2023-09-19T05:45:11;98571.91;;;15.76;66.51
82562;BME280;72228;51.208;10.468;2023-09-19T05:47:38;98570.31;;;15.75;66.23
82562;BME280;72228;51.208;10.468;2023-09-19T05:50:06;98571.00;;;15.56;67.50
82562;BME280;72228;51.208;10.468;2023-09-19T05:52:37;98564.16;;;15.53;67.93
82562;BME280;72228;51.208;10.468;2023-09-19T05:55:06;98571.19;;;15.47;67.81
82562;BME280;72228;51.208;10.468;2023-09-19T05:57:32;98572.34;;;15.46;67.83
82562;BME280;72228;51.208;10.468;2023-09-19T05:59:58;98571.63;;;15.49;67.24
82562;BME280;72228;51.208;10.468;2023-09-19T06:02:23;98560.09;;;15.51;66.68
82562;BME280;72228;51.208;10.468;2023-09-19T06:04:48;98562.34;;;15.45;67.79
82562;BME280;72228;51.208;10.468;2023-09-19T06:07:15;98564.75;;;15.47;67.38
82562;BME280;72228;51.208;10.468;2023-09-19T06:09:41;98574.31;;;15.46;67.38
82562;BME280;72228;51.208;10.468;2023-09-19T06:12:07;98575.59;;;15.48;67.40
82562;BME280;72228;51.208;10.468;2023-09-19T06:14:32;98580.03;;;15.49;67.91
82562;BME280;72228;51.208;10.468;2023-09-19T06:16:58;98576.69;;;15.60;67.28
82562;BME280;72228;51.208;10.468;2023-09-19T06:19:25;98580.94;;;15.69;67.42
82562;BME280;72228;51.208;10.468;2023-09-19T06:21:52;98579.59;;;15.79;66.65
82562;BME280;72228;51.208;10.468;2023-09-19T06:24:19;98584.00;;;15.80;66.96
82562;BME280;72228;51.208;10.468;2023-09-19T06:26:45;98593.31;;;15.84;67.04
82562;BME280;72228;51.208;10.468;2023-09-19T06:29:10;98586.06;;;15.83;67.37
82562;BME280;72228;51.208;10.468;2023-09-19T06:31:39;98587.63;;;15.96;66.19
82562;BME280;72228;51.208;10.468;2023-09-19T06:34:04;98612.47;;;16.01;66.08
82562;BME280;72228;51.208;10.468;2023-09-19T06:36:30;98611.34;;;16.02;66.19
82562;BME280;72228;51.208;10.468;2023-09-19T06:38:55;98613.22;;;15.98;66.54
82562;BME280;72228;51.208;10.468;2023-09-19T06:41:21;98627.28;;;16.02;67.02
82562;BME280;72228;51.208;10.468;2023-09-19T06:43:50;98623.66;;;16.01;66.45
82562;BME280;72228;51.208;10.468;2023-09-19T06:46:18;98630.44;;;16.00;67.54
82562;BME280;72228;51.208;10.468;2023-09-19T06:48:44;98635.84;;;16.09;66.28
82562;BME280;72228;51.208;10.468;2023-09-19T06:51:10;98645.75;;;16.06;65.10
82562;BME280;72228;51.208;10.468;2023-09-19T06:53:35;98653.44;;;16.09;65.60
82562;BME280;72228;51.208;10.468;2023-09-19T06:56:02;98656.41;;;16.17;64.24
82562;BME280;72228;51.208;10.468;2023-09-19T06:58:27;98663.34;;;16.23;64.51
82562;BME280;72228;51.208;10.468;2023-09-19T07:00:53;98683.03;;;16.26;63.93
82562;BME280;72228;51.208;10.468;2023-09-19T07:03:19;98680.78;;;16.32;63.49
82562;BME280;72228;51.208;10.468;2023-09-19T07:05:47;98688.78;;;16.33;62.87
82562;BME280;72228;51.208;10.468;2023-09-19T07:08:13;98687.25;;;16.36;62.32
82562;BME280;72228;51.208;10.468;2023-09-19T07:10:40;98693.09;;;16.62;61.52
82562;BME280;72228;51.208;10.468;2023-09-19T07:13:15;98706.41;;;16.85;60.88
82562;BME280;72228;51.208;10.468;2023-09-19T07:15:43;98698.16;;;16.92;58.30
82562;BME280;72228;51.208;10.468;2023-09-19T07:18:16;98705.56;;;17.00;56.77
82562;BME280;72228;51.208;10.468;2023-09-19T07:20:43;98702.34;;;17.37;57.13
82562;BME280;72228;51.208;10.468;2023-09-19T07:23:16;98702.78;;;18.23;53.01
82562;BME280;72228;51.208;10.468;2023-09-19T07:25:43;98706.84;;;18.26;52.44
82562;BME280;72228;51.208;10.468;2023-09-19T07:28:10;98707.19;;;18.02;52.06
82562;BME280;72228;51.208;10.468;2023-09-19T07:30:38;98708.84;;;18.03;52.19
82562;BME280;72228;51.208;10.468;2023-09-19T07:33:05;98704.38;;;17.79;52.89
82562;BME280;72228;51.208;10.468;2023-09-19T07:35:31;98722.81;;;17.80;53.14
82562;BME280;72228;51.208;10.468;2023-09-19T07:37:56;98709.25;;;17.62;53.20
82562;BME280;72228;51.208;10.468;2023-09-19T07:40:27;98715.47;;;17.72;52.63
82562;BME280;72228;51.208;10.468;2023-09-19T07:42:55;98712.94;;;18.09;52.50
82562;BME280;72228;51.208;10.468;2023-09-19T07:45:20;98713.94;;;17.97;51.80
82562;BME280;72228;51.208;10.468;2023-09-19T07:47:47;98709.44;;;18.15;51.70
82562;BME280;72228;51.208;10.468;2023-09-19T07:50:14;98719.03;;;18.37;51.66
82562;BME280;72228;51.208;10.468;2023-09-19T07:52:41;98719.72;;;18.31;50.92
82562;BME280;72228;51.208;10.468;2023-09-19T07:55:08;98708.94;;;18.10;51.31
82562;BME280;72228;51.208;10.468;2023-09-19T07:57:37;98718.69;;;17.74;52.12
82562;BME280;72228;51.208;10.468;2023-09-19T08:00:03;98727.53;;;17.76;53.24
82562;BME280;72228;51.208;10.468;2023-09-19T08:02:36;98729.00;;;17.89;51.93
82562;BME280;72228;51.208;10.468;2023-09-19T08:05:03;98725.00;;;17.70;52.40
82562;BME280;72228;51.208;10.468;2023-09-19T08:07:34;98734.91;;;17.45;52.67
82562;BME280;72228;51.208;10.468;2023-09-19T08:10:02;98733.00;;;17.49;53.45
82562;BME280;72228;51.208;10.468;2023-09-19T08:12:28;98746.16;;;17.84;51.98
82562;BME280;72228;51.208;10.468;2023-09-19T08:14:55;98745.69;;;17.62;52.12
82562;BME280;72228;51.208;10.468;2023-09-19T08:17:21;98753.06;;;17.51;51.86
82562;BME280;72228;51.208;10.468;2023-09-19T08:19:48;98755.53;;;17.72;51.38
82562;BME280;72228;51.208;10.468;2023-09-19T08:22:14;98755.50;;;17.91;50.78
82562;BME280;72228;51.208;10.468;2023-09-19T08:24:42;98760.97;;;17.84;51.17
82562;BME280;72228;51.208;10.468;2023-09-19T08:27:10;98762.59;;;17.85;50.12
82562;BME280;72228;51.208;10.468;2023-09-19T08:29:37;98759.00;;;18.31;50.11
82562;BME280;72228;51.208;10.468;2023-09-19T08:32:04;98765.38;;;18.28;49.65
82562;BME280;72228;51.208;10.468;2023-09-19T08:34:29;98760.09;;;18.95;50.23
82562;BME280;72228;51.208;10.468;2023-09-19T08:36:59;98772.00;;;19.11;48.21
82562;BME280;72228;51.208;10.468;2023-09-19T08:39:25;98768.16;;;19.26;48.49
82562;BME280;72228;51.208;10.468;2023-09-19T08:42:00;98770.69;;;19.05;48.21
82562;BME280;72228;51.208;10.468;2023-09-19T08:44:27;98775.22;;;19.43;47.19
82562;BME280;72228;51.208;10.468;2023-09-19T08:47:01;98774.63;;;18.51;49.19
82562;BME280;72228;51.208;10.468;2023-09-19T08:49:37;98773.38;;;19.24;49.25
82562;BME280;72228;51.208;10.468;2023-09-19T08:52:19;98770.50;;;19.51;47.60
82562;BME280;72228;51.208;10.468;2023-09-19T08:54:47;98774.28;;;19.32;48.66
82562;BME280;72228;51.208;10.468;2023-09-19T08:57:15;98780.72;;;18.80;48.24
82562;BME280;72228;51.208;10.468;2023-09-19T08:59:47;98779.53;;;18.81;49.45
82562;BME280;72228;51.208;10.468;2023-09-19T09:02:14;98788.19;;;18.95;49.12
82562;BME280;72228;51.208;10.468;2023-09-19T09:04:43;98787.91;;;18.77;48.47
82562;BME280;72228;51.208;10.468;2023-09-19T09:07:13;98791.38;;;18.93;48.71
82562;BME280;72228;51.208;10.468;2023-09-19T09:09:40;98789.06;;;19.29;47.63
82562;BME280;72228;51.208;10.468;2023-09-19T09:12:13;98795.88;;;19.24;48.28
82562;BME280;72228;51.208;10.468;2023-09-19T09:14:45;98789.28;;;19.13;47.58
82562;BME280;72228;51.208;10.468;2023-09-19T09:17:15;98787.84;;;18.51;48.88
82562;BME280;72228;51.208;10.468;2023-09-19T09:19:42;98792.63;;;18.50;48.21
82562;BME280;72228;51.208;10.468;2023-09-19T09:22:09;98791.66;;;18.39;48.30
82562;BME280;72228;51.208;10.468;2023-09-19T09:24:35;98789.59;;;18.82;47.59
82562;BME280;72228;51.208;10.468;2023-09-19T09:27:06;98795.63;;;19.10;47.94
82562;BME280;72228;51.208;10.468;2023-09-19T09:29:46;98783.75;;;19.20;46.45
82562;BME280;72228;51.208;10.468;2023-09-19T09:32:22;98793.00;;;19.51;47.39
82562;BME280;72228;51.208;10.468;2023-09-19T09:35:01;98774.84;;;18.88;46.19
82562;BME280;72228;51.208;10.468;2023-09-19T09:37:27;98780.41;;;19.11;46.36
82562;BME280;72228;51.208;10.468;2023-09-19T09:40:03;98786.50;;;19.47;47.24
82562;BME280;72228;51.208;10.468;2023-09-19T09:42:40;98786.31;;;19.93;46.38
82562;BME280;72228;51.208;10.468;2023-09-19T09:47:47;98785.38;;;20.19;44.88
82562;BME280;72228;51.208;10.468;2023-09-19T09:50:31;98786.91;;;20.09;45.50
82562;BME280;72228;51.208;10.468;2023-09-19T09:53:28;98788.69;;;20.69;45.09
82562;BME280;72228;51.208;10.468;2023-09-19T09:55:57;98789.44;;;20.62;44.47
82562;BME280;72228;51.208;10.468;2023-09-19T09:58:25;98785.03;;;20.24;44.55
82562;BME280;72228;51.208;10.468;2023-09-19T10:00:55;98783.69;;;20.48;44.76
82562;BME280;72228;51.208;10.468;2023-09-19T10:03:37;98792.28;;;21.17;42.67
82562;BME280;72228;51.208;10.468;2023-09-19T10:06:14;98784.53;;;21.62;42.32
82562;BME280;72228;51.208;10.468;2023-09-19T10:08:59;98786.19;;;21.77;42.08
82562;BME280;72228;51.208;10.468;2023-09-19T10:12:06;98789.91;;;21.19;41.86
82562;BME280;72228;51.208;10.468;2023-09-19T10:14:35;98786.56;;;21.68;40.88
82562;BME280;72228;51.208;10.468;2023-09-19T10:17:05;98782.63;;;21.94;41.21
82562;BME280;72228;51.208;10.468;2023-09-19T10:19:37;98779.63;;;21.48;42.74
82562;BME280;72228;51.208;10.468;2023-09-19T10:22:05;98785.88;;;21.97;40.62
82562;BME280;72228;51.208;10.468;2023-09-19T10:24:35;98779.63;;;21.52;41.25
82562;BME280;72228;51.208;10.468;2023-09-19T10:27:01;98789.06;;;21.15;41.88
82562;BME280;72228;51.208;10.468;2023-09-19T10:29:29;98789.72;;;20.09;43.73
82562;BME280;72228;51.208;10.468;2023-09-19T10:31:58;98789.75;;;20.13;43.86
82562;BME280;72228;51.208;10.468;2023-09-19T10:34:25;98784.19;;;20.20;44.52
82562;BME280;72228;51.208;10.468;2023-09-19T10:36:51;98786.78;;;20.35;44.50
82562;BME280;72228;51.208;10.468;2023-09-19T10:39:17;98791.69;;;20.05;43.63
82562;BME280;72228;51.208;10.468;2023-09-19T10:41:55;98787.69;;;19.72;44.51
82562;BME280;72228;51.208;10.468;2023-09-19T10:44:24;98787.78;;;19.79;44.78
82562;BME280;72228;51.208;10.468;2023-09-19T10:46:51;98787.06;;;20.23;45.38
82562;BME280;72228;51.208;10.468;2023-09-19T10:49:19;98779.59;;;20.42;44.58
82562;BME280;72228;51.208;10.468;2023-09-19T10:51:47;98791.25;;;20.84;44.86
82562;BME280;72228;51.208;10.468;2023-09-19T10:54:18;98779.06;;;21.28;42.11
82562;BME280;72228;51.208;10.468;2023-09-19T10:56:49;98776.56;;;21.16;43.29
82562;BME280;72228;51.208;10.468;2023-09-19T10:59:17;98774.00;;;21.52;42.80
82562;BME280;72228;51.208;10.468;2023-09-19T11:01:51;98777.25;;;21.54;42.20
82562;BME280;72228;51.208;10.468;2023-09-19T11:15:08;98763.13;;;21.50;42.51
82562;BME280;72228;51.208;10.468;2023-09-19T11:17:40;98764.06;;;21.90;42.37
82562;BME280;72228;51.208;10.468;2023-09-19T11:30:39;98764.09;;;22.08;41.93
82562;BME280;72228;51.208;10.468;2023-09-19T11:33:30;98758.03;;;21.91;42.65
82562;BME280;72228;51.208;10.468;2023-09-19T11:43:45;98747.41;;;21.56;41.96
82562;BME280;72228;51.208;10.468;2023-09-19T11:46:11;98751.81;;;21.47;40.89
82562;BME280;72228;51.208;10.468;2023-09-19T11:48:40;98740.88;;;21.41;40.80
82562;BME280;72228;51.208;10.468;2023-09-19T11:51:18;98741.88;;;21.81;41.95
82562;BME280;72228;51.208;10.468;2023-09-19T11:56:24;98747.44;;;21.60;42.13
82562;BME280;72228;51.208;10.468;2023-09-19T11:58:52;98757.22;;;21.87;40.57
82562;BME280;72228;51.208;10.468;2023-09-19T12:01:31;98754.81;;;21.93;41.49
82562;BME280;72228;51.208;10.468;2023-09-19T12:03:59;98750.56;;;21.40;40.72
82562;BME280;72228;51.208;10.468;2023-09-19T12:06:26;98740.25;;;21.04;40.87
82562;BME280;72228;51.208;10.468;2023-09-19T12:08:52;98750.94;;;21.35;40.88
82562;BME280;72228;51.208;10.468;2023-09-19T12:11:23;98753.38;;;21.40;41.95
82562;BME280;72228;51.208;10.468;2023-09-19T12:13:49;98757.44;;;21.43;40.34
82562;BME280;72228;51.208;10.468;2023-09-19T12:16:20;98758.59;;;21.31;41.20
82562;BME280;72228;51.208;10.468;2023-09-19T12:18:50;98763.25;;;21.79;40.61
82562;BME280;72228;51.208;10.468;2023-09-19T12:24:11;98763.34;;;21.27;40.25
82562;BME280;72228;51.208;10.468;2023-09-19T12:26:45;98773.50;;;20.77;42.27
82562;BME280;72228;51.208;10.468;2023-09-19T12:29:14;98773.63;;;20.95;43.41
82562;BME280;72228;51.208;10.468;2023-09-19T12:31:56;98768.88;;;21.06;42.13
82562;BME280;72228;51.208;10.468;2023-09-19T12:34:31;98769.28;;;20.53;43.04
82562;BME280;72228;51.208;10.468;2023-09-19T12:37:07;98767.47;;;20.34;42.82
82562;BME280;72228;51.208;10.468;2023-09-19T12:39:42;98755.16;;;20.08;43.82
82562;BME280;72228;51.208;10.468;2023-09-19T12:42:12;98755.97;;;20.13;43.65
82562;BME280;72228;51.208;10.468;2023-09-19T12:44:46;98755.03;;;20.39;43.33
82562;BME280;72228;51.208;10.468;2023-09-19T12:47:16;98758.59;;;20.80;42.83
82562;BME280;72228;51.208;10.468;2023-09-19T12:52:37;98752.03;;;20.61;42.16
82562;BME280;72228;51.208;10.468;2023-09-19T12:55:04;98744.72;;;21.08;43.60
82562;BME280;72228;51.208;10.468;2023-09-19T12:57:32;98743.44;;;20.99;41.87
82562;BME280;72228;51.208;10.468;2023-09-19T13:00:03;98750.00;;;20.58;41.68
82562;BME280;72228;51.208;10.468;2023-09-19T13:02:33;98749.34;;;20.76;43.32
82562;BME280;72228;51.208;10.468;2023-09-19T13:04:58;98741.72;;;20.80;42.82
82562;BME280;72228;51.208;10.468;2023-09-19T13:07:42;98738.19;;;20.94;42.63
82562;BME280;72228;51.208;10.468;2023-09-19T13:10:15;98750.53;;;20.30;42.69
82562;BME280;72228;51.208;10.468;2023-09-19T13:12:43;98744.31;;;19.77;44.49
82562;BME280;72228;51.208;10.468;2023-09-19T13:15:14;98736.53;;;19.97;44.76
82562;BME280;72228;51.208;10.468;2023-09-19T13:17:46;98741.59;;;20.21;44.84
82562;BME280;72228;51.208;10.468;2023-09-19T13:20:26;98747.69;;;20.27;44.37
82562;BME280;72228;51.208;10.468;2023-09-19T13:22:57;98748.56;;;20.34;43.62
82562;BME280;72228;51.208;10.468;2023-09-19T13:25:33;98747.22;;;20.21;44.59
82562;BME280;72228;51.208;10.468;2023-09-19T13:28:00;98743.84;;;20.05;43.86
82562;BME280;72228;51.208;10.468;2023-09-19T13:30:29;98732.41;;;19.87;44.48
82562;BME280;72228;51.208;10.468;2023-09-19T13:33:09;98744.97;;;19.63;44.51
82562;BME280;72228;51.208;10.468;2023-09-19T13:35:36;98744.31;;;19.73;45.51
82562;BME280;72228;51.208;10.468;2023-09-19T13:38:04;98747.63;;;19.82;45.93
82562;BME280;72228;51.208;10.468;2023-09-19T13:40:29;98749.88;;;19.70;45.39
82562;BME280;72228;51.208;10.468;2023-09-19T13:43:00;98743.09;;;19.74;46.21
82562;BME280;72228;51.208;10.468;2023-09-19T13:45:26;98746.88;;;19.89;45.75
82562;BME280;72228;51.208;10.468;2023-09-19T13:47:52;98742.19;;;20.00;45.87
82562;BME280;72228;51.208;10.468;2023-09-19T13:50:18;98747.78;;;19.97;44.28